Terminal Aerodrome Forecast
Issued by NWS Sterling, VA

Home | Current Version | Previous Version | Text Only | Print | Product List | Glossary On
Versions: 1 2 3 4 5 6 7 8 9 10 11 12 13 14 15 16 17 18 19 20 21 22 23
000
FTUS41 KLWX 191142 RRA
TAFDCA
TAF
KDCA 191142Z 1912/2012 07011KT P6SM OVC250
     FM191300 10013G20KT P6SM OVC200
     FM192200 10011KT P6SM -RA OVC090
     FM200000 09013KT P6SM -RA OVC020
     FM200100 09015G23KT 5SM RA OVC020
     FM200300 09017G25KT 5SM RA OVC010
     FM200700 11016G26KT 3SM +RA OVC008 WS020/13040KT
     FM201100 19009KT 4SM -RA OVC003=

USA.gov is the U.S. government's official web portal to all federal, state and local government web resources and services.